Time;durP1;ratioP1;P1;durP2;ratioP2;P2;SDS_P1;SDS_P2;PMS_P1;PMS_P2;Temp;Humidity;BMP_temperature;BMP_pressure;BME280_temperature;BME280_humidity;BME280_pressure;Samples;Min_cycle;Max_cycle;Signal;HPM_P1;HPM_P2
2021/01/11 00:00:52;;;;;;;54.88;26.23;;;;;;;0.99;100.00;101795.28;4981547;28;20498;-67
2021/01/11 00:03:17;;;;;;;59.72;24.92;;;;;;;0.94;100.00;101786.47;4989696;28;20045;-68
2021/01/11 00:05:43;;;;;;;61.20;24.45;;;;;;;0.95;100.00;101790.88;4990141;28;20497;-69
2021/01/11 00:08:08;;;;;;;54.03;24.90;;;;;;;0.97;100.00;101775.88;4990453;28;20042;-68
2021/01/11 00:10:34;;;;;;;57.50;23.48;;;;;;;1.04;100.00;101761.72;4991160;28;20062;-69
2021/01/11 00:12:59;;;;;;;51.78;23.98;;;;;;;1.00;100.00;101757.34;4989052;28;20128;-69
2021/01/11 00:15:24;;;;;;;60.10;26.95;;;;;;;1.00;100.00;101757.34;4989336;28;20410;-68
2021/01/11 00:17:50;;;;;;;52.38;24.35;;;;;;;0.99;100.00;101755.63;4991778;28;20046;-67
2021/01/11 00:20:15;;;;;;;60.55;26.17;;;;;;;0.86;100.00;101768.06;4990583;28;20042;-69
2021/01/11 00:22:45;;;;;;;53.47;24.05;;;;;;;0.85;100.00;101774.22;4989264;28;20490;-69
2021/01/11 00:25:11;;;;;;;56.03;24.17;;;;;;;0.82;100.00;101777.75;4990907;28;20128;-68
2021/01/11 00:27:37;;;;;;;53.95;24.60;;;;;;;0.96;100.00;101776.78;4991809;28;20128;-68
2021/01/11 00:30:05;;;;;;;52.00;25.17;;;;;;;0.89;100.00;101780.34;4990745;28;20077;-69
2021/01/11 00:32:38;;;;;;;53.47;24.15;;;;;;;0.93;100.00;101776.78;4989489;28;20034;-68
2021/01/11 00:35:05;;;;;;;50.38;24.65;;;;;;;0.83;100.00;101781.28;4990023;28;20042;-68
2021/01/11 00:37:31;;;;;;;50.35;24.08;;;;;;;0.87;100.00;101790.03;4987666;28;20026;-69
2021/01/11 00:39:56;;;;;;;59.95;23.63;;;;;;;0.85;100.00;101800.66;4990460;28;20085;-69
2021/01/11 00:42:22;;;;;;;51.65;24.05;;;;;;;0.79;100.00;101791.00;4989543;28;20030;-68
2021/01/11 00:44:48;;;;;;;50.05;22.13;;;;;;;0.81;100.00;101793.63;4981999;28;20045;-68
2021/01/11 00:47:14;;;;;;;53.03;24.50;;;;;;;0.86;100.00;101796.25;4991555;28;20034;-68
2021/01/11 00:49:41;;;;;;;56.95;26.20;;;;;;;0.79;100.00;101796.28;4987079;28;20038;-68
2021/01/11 00:52:07;;;;;;;50.03;24.55;;;;;;;0.97;100.00;101799.69;4988523;28;20033;-69
2021/01/11 00:54:33;;;;;;;54.22;23.40;;;;;;;0.86;100.00;101801.53;4989774;28;20031;-68
2021/01/11 00:57:03;;;;;;;61.47;24.98;;;;;;;0.94;100.00;101802.31;4991326;28;20034;-69
2021/01/11 00:59:42;;;;;;;51.50;24.05;;;;;;;1.03;100.00;101799.63;4981255;28;20039;-68
2021/01/11 01:02:08;;;;;;;55.55;24.40;;;;;;;1.03;100.00;101794.34;4972391;28;20039;-68
2021/01/11 01:04:33;;;;;;;57.63;24.77;;;;;;;0.95;100.00;101796.16;4989773;28;20034;-68
2021/01/11 01:07:03;;;;;;;60.45;25.63;;;;;;;0.88;100.00;101789.16;4988736;28;20030;-69
2021/01/11 01:09:29;;;;;;;57.35;25.83;;;;;;;0.92;100.00;101785.63;4988889;28;20049;-68
2021/01/11 01:11:54;;;;;;;53.08;24.60;;;;;;;0.87;100.00;101783.00;4990335;28;20042;-68
2021/01/11 01:14:20;;;;;;;64.55;25.55;;;;;;;0.86;100.00;101791.84;4989213;28;20531;-69
2021/01/11 01:16:45;;;;;;;58.78;26.52;;;;;;;0.86;100.00;101786.56;4989722;28;20394;-68
2021/01/11 01:19:11;;;;;;;56.38;25.42;;;;;;;0.92;100.00;101788.28;4990714;28;20058;-68
2021/01/11 01:21:36;;;;;;;64.68;26.40;;;;;;;0.82;100.00;101796.25;4988657;28;20045;-67
2021/01/11 01:24:01;;;;;;;57.92;27.00;;;;;;;0.80;100.00;101783.97;4989788;28;20053;-68
2021/01/11 01:26:27;;;;;;;61.00;26.70;;;;;;;0.74;100.00;101782.22;4986321;28;20060;-68
2021/01/11 01:28:52;;;;;;;63.08;26.27;;;;;;;0.74;100.00;101795.41;4989297;28;20121;-69
2021/01/11 01:31:18;;;;;;;58.65;26.17;;;;;;;0.85;100.00;101791.84;4989861;28;20042;-68
2021/01/11 01:33:43;;;;;;;63.55;27.70;;;;;;;0.79;100.00;101791.00;4989388;28;20854;-68
2021/01/11 01:36:09;;;;;;;58.65;27.33;;;;;;;0.77;100.00;101787.47;4988428;28;20510;-69
2021/01/11 01:38:34;;;;;;;59.05;26.92;;;;;;;0.88;100.00;101789.16;4980288;28;20522;-69
2021/01/11 01:40:59;;;;;;;63.10;27.15;;;;;;;0.82;100.00;101785.69;4989916;28;20038;-68
2021/01/11 01:43:25;;;;;;;62.47;28.10;;;;;;;0.90;100.00;101784.75;4989602;28;20056;-69
2021/01/11 01:45:50;;;;;;;62.17;27.15;;;;;;;0.82;100.00;101787.44;4990468;28;20034;-68
2021/01/11 01:48:16;;;;;;;61.20;28.30;;;;;;;0.84;100.00;101788.31;4989124;28;20051;-67
2021/01/11 01:50:42;;;;;;;69.35;28.92;;;;;;;0.94;100.00;101789.13;4988756;28;20041;-68
2021/01/11 01:53:08;;;;;;;63.33;27.83;;;;;;;0.88;100.00;101794.44;4988160;28;20038;-69
2021/01/11 01:55:36;;;;;;;68.15;28.75;;;;;;;0.99;100.00;101787.34;4987916;28;20046;-69
2021/01/11 01:58:03;;;;;;;67.32;29.45;;;;;;;1.13;100.00;101796.00;4984834;28;20036;-68
2021/01/11 02:00:28;;;;;;;64.82;28.80;;;;;;;0.96;100.00;101798.81;4971079;28;20514;-69
2021/01/11 02:02:54;;;;;;;73.25;30.27;;;;;;;0.93;100.00;101792.63;4986849;28;20034;-70
2021/01/11 02:05:19;;;;;;;62.70;28.23;;;;;;;0.97;100.00;101789.09;4988735;28;20455;-67
2021/01/11 02:08:03;;;;;;;63.67;28.63;;;;;;;1.01;100.00;101796.13;4986511;28;20054;-68
2021/01/11 02:11:02;;;;;;;64.60;29.80;;;;;;;0.90;100.00;101788.28;4988585;28;20038;-69
2021/01/11 02:13:31;;;;;;;63.28;29.65;;;;;;;0.91;100.00;101783.88;4970162;28;20661;-68
2021/01/11 02:16:05;;;;;;;72.13;30.45;;;;;;;1.00;100.00;101781.13;4987206;28;20195;-69
2021/01/11 02:18:45;;;;;;;74.00;29.65;;;;;;;0.90;100.00;101784.75;4986053;28;20049;-69
2021/01/11 02:21:35;;;;;;;68.60;31.45;;;;;;;0.91;100.00;101783.88;4979353;28;20034;-70
2021/01/11 02:24:31;;;;;;;70.68;29.77;;;;;;;0.94;100.00;101790.00;4981006;28;20069;-70
2021/01/11 02:27:38;;;;;;;75.82;31.70;;;;;;;1.00;100.00;101789.94;4985442;28;20546;-70
2021/01/11 02:30:16;;;;;;;76.45;32.35;;;;;;;1.03;100.00;101792.59;4963889;28;20054;-69
2021/01/11 02:32:45;;;;;;;74.53;34.78;;;;;;;1.03;100.00;101794.34;4987384;28;20038;-70
2021/01/11 02:35:13;;;;;;;78.43;33.97;;;;;;;1.09;100.00;101795.16;4988317;28;20168;-69
2021/01/11 02:37:39;;;;;;;80.18;35.95;;;;;;;1.10;100.00;101785.47;4987572;28;20049;-69
2021/01/11 02:40:07;;;;;;;85.22;37.15;;;;;;;1.15;100.00;101794.25;4987528;28;20038;-68
2021/01/11 02:42:33;;;;;;;77.03;35.80;;;;;;;1.24;100.00;101788.84;4987915;28;20034;-69
2021/01/11 02:44:58;;;;;;;81.70;37.22;;;;;;;1.11;100.00;101787.22;4989979;28;20092;-69
2021/01/11 02:47:34;;;;;;;83.15;38.05;;;;;;;1.21;100.00;101788.91;4988396;28;20034;-70
2021/01/11 02:50:01;;;;;;;90.43;37.75;;;;;;;1.10;100.00;101786.34;4982470;28;20486;-69
2021/01/11 02:52:58;;;;;;;81.65;36.20;;;;;;;1.28;100.00;101773.84;4988674;28;20037;-69
2021/01/11 02:56:03;;;;;;;86.43;37.67;;;;;;;1.16;100.00;101775.72;4979946;28;20065;-70
2021/01/11 02:58:43;;;;;;;90.13;37.20;;;;;;;1.19;100.00;101758.94;4984457;28;20042;-69
2021/01/11 03:01:11;;;;;;;94.63;40.05;;;;;;;1.08;100.00;101756.41;4988022;28;20057;-69
2021/01/11 03:03:39;;;;;;;93.47;39.30;;;;;;;1.22;100.00;101761.56;4986844;28;20042;-70
2021/01/11 03:06:07;;;;;;;90.32;38.72;;;;;;;1.30;100.00;101762.34;4987998;28;20062;-69
2021/01/11 03:08:32;;;;;;;88.07;40.05;;;;;;;1.21;100.00;101754.53;4988206;28;20403;-69
2021/01/11 03:10:58;;;;;;;91.38;39.97;;;;;;;1.25;100.00;101752.72;4986841;28;20038;-70
2021/01/11 03:13:23;;;;;;;86.28;36.72;;;;;;;1.28;100.00;101753.56;4988303;28;20114;-69
2021/01/11 03:15:49;;;;;;;88.57;39.13;;;;;;;1.18;100.00;101747.47;4970324;28;20121;-68
2021/01/11 03:18:14;;;;;;;85.85;38.55;;;;;;;1.13;100.00;101743.13;4987209;28;20557;-69
2021/01/11 03:20:40;;;;;;;86.57;39.83;;;;;;;1.08;100.00;101732.59;4984731;28;20038;-69
2021/01/11 03:23:05;;;;;;;84.00;39.38;;;;;;;1.15;100.00;101723.72;4983448;28;20042;-70
2021/01/11 03:25:30;;;;;;;86.18;38.83;;;;;;;1.19;100.00;101721.91;4987859;28;20034;-69
2021/01/11 03:27:56;;;;;;;86.68;39.92;;;;;;;1.18;100.00;101728.97;4987871;28;20034;-69
2021/01/11 03:30:21;;;;;;;88.45;40.40;;;;;;;1.18;100.00;101728.09;4983731;28;20047;-70
2021/01/11 03:32:47;;;;;;;87.70;39.20;;;;;;;1.09;100.00;101728.19;4987654;28;20042;-70
2021/01/11 03:35:13;;;;;;;83.22;39.13;;;;;;;1.26;100.00;101731.53;4987052;28;20037;-69
2021/01/11 03:37:38;;;;;;;80.80;36.97;;;;;;;1.25;100.00;101727.13;4987420;28;20045;-69
2021/01/11 03:40:04;;;;;;;86.10;39.05;;;;;;;1.22;100.00;101737.75;4987346;28;20050;-69
2021/01/11 03:42:30;;;;;;;85.40;36.17;;;;;;;1.23;100.00;101745.66;4987731;28;20058;-69
2021/01/11 03:44:55;;;;;;;88.78;37.80;;;;;;;1.12;100.00;101736.09;4987744;28;20062;-68
2021/01/11 03:47:21;;;;;;;79.05;36.40;;;;;;;1.07;100.00;101733.50;4986416;28;20084;-69
2021/01/11 03:49:46;;;;;;;82.72;37.10;;;;;;;1.22;100.00;101727.19;4986614;28;20050;-69
2021/01/11 03:52:11;;;;;;;97.97;43.10;;;;;;;1.22;100.00;101729.84;4986467;28;20038;-70
2021/01/11 03:54:37;;;;;;;89.43;38.40;;;;;;;1.19;100.00;101729.84;4987828;28;20041;-69
2021/01/11 03:57:02;;;;;;;70.95;33.33;;;;;;;1.25;100.00;101721.84;4986871;28;20189;-70
2021/01/11 03:59:27;;;;;;;71.07;34.28;;;;;;;1.22;100.00;101732.47;4984412;28;20034;-69
2021/01/11 04:01:53;;;;;;;75.18;34.55;;;;;;;1.28;100.00;101721.84;4986904;28;20113;-70
2021/01/11 04:04:18;;;;;;;72.57;34.38;;;;;;;1.24;100.00;101722.75;4987397;28;20061;-70
2021/01/11 04:06:44;;;;;;;71.63;34.30;;;;;;;1.20;100.00;101713.09;4986548;28;20070;-69
2021/01/11 04:09:10;;;;;;;67.53;33.50;;;;;;;1.26;100.00;101720.09;4986709;28;20046;-70
2021/01/11 04:11:36;;;;;;;68.38;33.33;;;;;;;1.30;100.00;101730.59;4986561;28;21790;-70
2021/01/11 04:14:01;;;;;;;66.43;31.98;;;;;;;1.23;100.00;101723.66;4979483;28;20041;-70
2021/01/11 04:16:26;;;;;;;71.88;34.33;;;;;;;1.30;100.00;101722.66;4986401;28;20450;-70
2021/01/11 04:18:52;;;;;;;68.57;33.65;;;;;;;1.23;100.00;101712.19;4984301;28;20033;-69
2021/01/11 04:21:17;;;;;;;65.28;33.05;;;;;;;1.19;100.00;101716.63;4987180;28;20042;-70
2021/01/11 04:23:43;;;;;;;72.05;33.22;;;;;;;1.39;100.00;101714.66;4991726;28;20042;-70
2021/01/11 04:26:09;;;;;;;75.82;33.63;;;;;;;1.28;100.00;101711.25;4990908;28;20057;-70
2021/01/11 04:28:35;;;;;;;74.75;34.22;;;;;;;1.32;100.00;101712.97;4981840;28;20058;-70
2021/01/11 04:31:01;;;;;;;77.90;36.17;;;;;;;1.16;100.00;101712.25;4990554;28;20054;-70
2021/01/11 04:33:26;;;;;;;78.07;35.95;;;;;;;1.26;100.00;101713.03;4990330;28;20034;-70
2021/01/11 04:35:52;;;;;;;80.65;35.80;;;;;;;1.38;100.00;101720.84;4987840;28;20037;-69
2021/01/11 04:38:17;;;;;;;76.97;35.60;;;;;;;1.35;100.00;101710.31;4989839;28;20482;-69
2021/01/11 04:40:42;;;;;;;85.95;37.30;;;;;;;1.35;100.00;101717.34;4984118;28;20043;-70
2021/01/11 04:43:14;;;;;;;81.75;36.95;;;;;;;1.29;100.00;101735.94;4990399;28;20046;-70
2021/01/11 04:45:40;;;;;;;94.20;37.75;;;;;;;1.31;100.00;101731.50;4990277;28;20124;-69
2021/01/11 04:48:06;;;;;;;91.97;38.83;;;;;;;1.23;100.00;101723.66;4990099;28;20513;-70
2021/01/11 04:50:32;;;;;;;88.15;38.83;;;;;;;1.23;100.00;101722.78;4989280;28;20508;-69
2021/01/11 04:52:57;;;;;;;88.63;39.08;;;;;;;1.27;100.00;101703.31;4991034;28;20038;-70
2021/01/11 04:55:23;;;;;;;91.00;40.25;;;;;;;1.38;100.00;101707.59;4989327;28;20039;-70
2021/01/11 04:57:54;;;;;;;94.75;39.83;;;;;;;1.37;100.00;101705.84;4983423;28;20037;-69
2021/01/11 05:00:21;;;;;;;92.47;40.05;;;;;;;1.28;100.00;101697.16;4986022;28;20038;-69
2021/01/11 05:02:55;;;;;;;93.57;40.45;;;;;;;1.35;100.00;101702.38;4990110;28;20034;-69
2021/01/11 05:05:22;;;;;;;91.03;38.65;;;;;;;1.36;100.00;101709.38;4989050;28;20030;-70
2021/01/11 05:07:47;;;;;;;94.80;39.83;;;;;;;1.33;100.00;101705.91;4990529;28;20116;-69
2021/01/11 05:10:20;;;;;;;90.65;39.17;;;;;;;1.45;100.00;101698.72;4987613;28;20121;-70
2021/01/11 05:12:51;;;;;;;;;;;;;;;1.47;100.00;101696.06;4989210;28;20022;-70
2021/01/11 05:15:18;;;;;;;87.43;38.22;;;;;;;1.40;100.00;101699.66;4987665;28;20021;-69
2021/01/11 05:17:45;;;;;;;95.43;39.83;;;;;;;1.40;100.00;101689.09;4987556;28;20038;-70
2021/01/11 05:20:12;;;;;;;103.65;40.50;;;;;;;1.43;100.00;101684.63;4988045;28;20042;-70
2021/01/11 05:22:39;;;;;;;99.38;42.03;;;;;;;1.41;100.00;101678.50;4989662;28;20125;-70
2021/01/11 05:25:13;;;;;;;101.03;41.65;;;;;;;1.53;100.00;101680.13;4986817;28;20445;-69
2021/01/11 05:27:38;;;;;;;98.53;41.50;;;;;;;1.44;100.00;101686.38;4986992;28;20065;-70
2021/01/11 05:30:08;;;;;;;105.00;43.38;;;;;;;1.50;100.00;101694.25;4990171;28;20042;-70
2021/01/11 05:32:34;;;;;;;102.70;43.80;;;;;;;1.48;100.00;101696.03;4987695;28;20394;-70
2021/01/11 05:34:59;;;;;;;106.60;42.20;;;;;;;1.46;100.00;101694.31;4990389;28;20125;-69
2021/01/11 05:37:39;;;;;;;106.57;44.13;;;;;;;1.36;100.00;101688.22;4989026;28;20046;-69
2021/01/11 05:40:13;;;;;;;104.85;43.35;;;;;;;1.38;100.00;101681.16;4989267;28;20038;-69
2021/01/11 05:42:40;;;;;;;97.65;40.88;;;;;;;1.53;100.00;101680.13;4985676;28;20406;-70
2021/01/11 05:45:15;;;;;;;97.80;42.53;;;;;;;1.50;100.00;101673.06;4988440;28;20038;-70
2021/01/11 05:48:00;;;;;;;97.55;41.88;;;;;;;1.46;100.00;101660.78;4989060;28;20474;-70
2021/01/11 05:50:49;;;;;;;86.80;36.47;;;;;;;1.48;100.00;101655.50;4989305;28;20117;-70
2021/01/11 05:53:17;;;;;;;95.75;37.97;;;;;;;1.57;100.00;101653.59;4986201;28;20044;-69
2021/01/11 05:55:43;;;;;;;89.07;38.63;;;;;;;1.53;100.00;101651.88;4987609;28;20039;-69
2021/01/11 05:58:08;;;;;;;94.70;36.50;;;;;;;1.60;100.00;101647.41;4988949;28;20045;-69
2021/01/11 06:00:36;;;;;;;79.30;34.90;;;;;;;1.54;100.00;101635.09;4987497;28;20042;-70
2021/01/11 06:03:03;;;;;;;83.85;36.55;;;;;;;1.54;100.00;101629.81;4988433;28;20151;-69
2021/01/11 06:05:31;;;;;;;83.90;36.80;;;;;;;1.55;100.00;101631.56;4986909;28;20034;-69
2021/01/11 06:07:57;;;;;;;82.40;34.00;;;;;;;1.52;100.00;101630.72;4983621;28;20048;-70
2021/01/11 06:10:24;;;;;;;83.38;38.05;;;;;;;1.47;100.00;101644.03;4988980;28;20034;-69
2021/01/11 06:12:50;;;;;;;80.55;37.30;;;;;;;1.55;100.00;101642.13;4987827;28;20502;-70
2021/01/11 06:15:18;;;;;;;80.15;37.05;;;;;;;1.55;100.00;101652.72;4987552;28;20038;-70
2021/01/11 06:17:45;;;;;;;82.68;37.35;;;;;;;1.64;100.00;101657.03;4987594;28;20043;-69
2021/01/11 06:20:19;;;;;;;81.25;35.22;;;;;;;1.63;100.00;101661.44;4989116;28;20038;-70
2021/01/11 06:22:45;;;;;;;77.82;36.35;;;;;;;1.68;100.00;101669.31;4980228;28;20064;-69
2021/01/11 06:25:19;;;;;;;79.15;37.97;;;;;;;1.67;100.00;101669.38;4987926;28;20038;-70
2021/01/11 06:27:55;;;;;;;80.13;37.65;;;;;;;1.69;100.00;101670.19;4987755;28;20042;-70
2021/01/11 06:30:33;;;;;;;80.78;36.22;;;;;;;1.61;100.00;101670.28;4988527;28;20145;-70
2021/01/11 06:33:10;;;;;;;78.45;35.58;;;;;;;1.55;100.00;101668.59;4988004;28;20506;-69
2021/01/11 06:35:38;;;;;;;75.53;35.33;;;;;;;1.60;100.00;101672.06;4988281;28;20054;-69
2021/01/11 06:38:08;;;;;;;77.70;35.80;;;;;;;1.78;100.00;101675.41;4987452;28;20042;-70
2021/01/11 06:40:34;;;;;;;77.30;34.05;;;;;;;1.81;100.00;101675.34;4988459;28;20413;-70
2021/01/11 06:43:01;;;;;;;77.68;34.42;;;;;;;1.78;100.00;101667.44;4983183;28;20068;-70
2021/01/11 06:45:40;;;;;;;73.78;33.03;;;;;;;1.68;100.00;101663.16;4987500;28;20113;-70
2021/01/11 06:48:07;;;;;;;73.80;33.60;;;;;;;1.69;100.00;101654.31;4996438;28;20118;-70
2021/01/11 06:50:34;;;;;;;76.55;33.58;;;;;;;1.70;100.00;101645.50;4988141;28;20037;-70
2021/01/11 06:53:03;;;;;;;69.80;33.75;;;;;;;1.71;100.00;101634.91;4986790;28;20117;-70
2021/01/11 06:55:29;;;;;;;73.05;33.13;;;;;;;1.63;100.00;101640.28;4988683;28;20080;-69
2021/01/11 06:57:57;;;;;;;74.57;33.97;;;;;;;1.74;100.00;101636.59;4988268;28;20498;-70
2021/01/11 07:00:28;;;;;;;69.93;32.83;;;;;;;1.74;100.00;101636.59;4984492;28;20045;-70
2021/01/11 07:02:54;;;;;;;72.90;30.50;;;;;;;1.78;100.00;101636.56;4988527;28;20038;-70
2021/01/11 07:05:38;;;;;;;71.78;33.13;;;;;;;1.72;100.00;101643.72;4988790;28;20046;-70
2021/01/11 07:08:12;;;;;;;68.05;31.55;;;;;;;1.75;100.00;101643.66;4968491;28;20038;-70
2021/01/11 07:10:42;;;;;;;72.45;31.00;;;;;;;1.82;100.00;101642.69;4985999;28;20070;-70
2021/01/11 07:13:16;;;;;;;70.32;31.33;;;;;;;1.71;100.00;101640.19;4987580;28;20450;-70
2021/01/11 07:15:42;;;;;;;56.83;27.88;;;;;;;1.71;100.00;101640.19;4984841;28;20038;-70
2021/01/11 07:18:07;;;;;;;67.57;29.40;;;;;;;1.67;100.00;101648.19;4987718;28;20053;-69
2021/01/11 07:20:42;;;;;;;61.42;28.67;;;;;;;1.72;100.00;101644.59;4986584;28;20912;-68
2021/01/11 07:23:09;;;;;;;62.38;28.80;;;;;;;1.66;100.00;101643.78;4983331;28;21477;-70
2021/01/11 07:25:36;;;;;;;64.43;28.27;;;;;;;1.79;100.00;101640.09;4987924;28;20556;-70
2021/01/11 07:28:03;;;;;;;61.67;29.55;;;;;;;1.58;100.00;101644.75;4986625;28;20064;-70
2021/01/11 07:30:33;;;;;;;68.07;27.27;;;;;;;1.71;100.00;101655.19;4984877;28;20045;-70
2021/01/11 07:32:59;;;;;;;57.13;26.08;;;;;;;1.69;100.00;101656.97;4984899;28;20054;-70
2021/01/11 07:35:25;;;;;;;61.03;26.70;;;;;;;1.79;100.00;101650.69;4986206;28;20109;-70
2021/01/11 07:37:50;;;;;;;64.28;26.67;;;;;;;1.67;100.00;101642.91;4986457;28;20042;-70
2021/01/11 07:40:16;;;;;;;65.00;27.83;;;;;;;1.65;100.00;101631.44;4988750;28;20038;-70
2021/01/11 07:42:42;;;;;;;63.10;27.23;;;;;;;1.63;100.00;101635.00;4987743;28;20751;-70
2021/01/11 07:45:09;;;;;;;61.10;28.42;;;;;;;1.71;100.00;101649.91;4987157;28;20137;-69
2021/01/11 07:47:40;;;;;;;60.45;26.50;;;;;;;1.63;100.00;101639.41;4983414;28;20038;-70
2021/01/11 07:50:06;;;;;;;62.47;27.85;;;;;;;1.62;100.00;101649.09;4987396;28;20034;-70
2021/01/11 07:52:32;;;;;;;60.30;27.23;;;;;;;1.68;100.00;101641.97;4988511;28;20491;-70
2021/01/11 07:54:59;;;;;;;65.53;28.25;;;;;;;1.65;100.00;101623.50;4986674;28;20644;-70
2021/01/11 07:57:27;;;;;;;64.07;27.80;;;;;;;1.61;100.00;101615.59;4991487;28;20043;-71
2021/01/11 08:00:08;;;;;;;65.25;28.58;;;;;;;1.55;100.00;101612.16;4988393;28;20034;-69
2021/01/11 08:02:44;;;;;;;66.38;29.17;;;;;;;1.59;100.00;101617.41;4990238;28;20031;-70
2021/01/11 08:05:20;;;;;;;68.00;29.13;;;;;;;1.62;100.00;101601.47;4991179;28;20054;-69
2021/01/11 08:07:49;;;;;;;67.07;28.40;;;;;;;1.65;100.00;101607.63;4992467;28;20070;-69
2021/01/11 08:10:16;;;;;;;62.83;27.67;;;;;;;1.71;100.00;101610.19;4990756;28;20096;-70
2021/01/11 08:12:41;;;;;;;65.25;27.52;;;;;;;1.71;100.00;101604.91;4990099;28;20038;-70
2021/01/11 08:15:07;;;;;;;65.15;28.40;;;;;;;1.58;100.00;101609.50;4991137;28;20112;-70
2021/01/11 08:17:39;;;;;;;67.88;28.33;;;;;;;1.56;100.00;101612.16;4985248;28;20039;-70
2021/01/11 08:20:06;;;;;;;70.93;29.20;;;;;;;1.58;100.00;101605.06;4991869;28;20081;-70
2021/01/11 08:22:31;;;;;;;69.43;30.25;;;;;;;1.62;100.00;101601.47;4989953;28;20042;-70
2021/01/11 08:24:59;;;;;;;71.53;29.98;;;;;;;1.66;100.00;101604.09;4989602;28;20595;-70
2021/01/11 08:27:30;;;;;;;60.53;27.83;;;;;;;1.64;100.00;101598.81;4989288;28;20035;-69
2021/01/11 08:30:11;;;;;;;66.75;29.17;;;;;;;1.61;100.00;101594.44;4987604;28;20113;-70
2021/01/11 08:32:38;;;;;;;69.50;28.85;;;;;;;1.72;100.00;101585.50;4986433;28;20057;-70
2021/01/11 08:35:14;;;;;;;68.80;28.95;;;;;;;1.75;100.00;101582.78;4985938;28;20569;-70
2021/01/11 08:37:40;;;;;;;63.95;27.83;;;;;;;1.77;100.00;101594.22;4990227;28;20065;-70
2021/01/11 08:40:10;;;;;;;61.13;26.75;;;;;;;1.76;100.00;101587.19;4988824;28;20494;-70
2021/01/11 08:42:37;;;;;;;63.53;26.92;;;;;;;1.72;100.00;101593.44;4989479;28;20047;-70
2021/01/11 08:45:23;;;;;;;62.75;25.98;;;;;;;1.69;100.00;101596.97;4989760;28;20470;-69
2021/01/11 08:48:16;;;;;;;60.03;25.63;;;;;;;1.71;100.00;101615.50;4990909;28;20049;-70
2021/01/11 08:50:43;;;;;;;61.67;26.38;;;;;;;1.67;100.00;101608.50;4986684;28;20034;-69
2021/01/11 08:53:26;;;;;;;56.67;25.08;;;;;;;1.70;100.00;101581.97;4988149;28;20035;-70
2021/01/11 08:56:00;;;;;;;58.25;23.98;;;;;;;1.58;100.00;101565.38;4990932;28;20026;-70
2021/01/11 08:58:28;;;;;;;55.72;24.13;;;;;;;1.67;100.00;101561.72;4990879;28;20034;-70
2021/01/11 09:01:13;;;;;;;61.58;23.90;;;;;;;1.70;100.00;101574.03;4990044;28;20034;-70
2021/01/11 09:03:40;;;;;;;56.25;21.88;;;;;;;1.61;100.00;101567.97;4989517;28;20026;-70
2021/01/11 09:06:06;;;;;;;48.95;22.08;;;;;;;1.68;100.00;101562.59;4990043;28;20546;-71
2021/01/11 09:08:31;;;;;;;50.40;21.95;;;;;;;1.71;100.00;101570.50;4989335;28;20038;-70
2021/01/11 09:10:56;;;;;;;54.42;21.63;;;;;;;1.75;100.00;101569.53;4991068;28;20030;-70
2021/01/11 09:13:25;;;;;;;52.20;22.10;;;;;;;1.72;100.00;101574.91;4989857;28;20788;-71
2021/01/11 09:15:51;;;;;;;58.60;21.02;;;;;;;1.77;100.00;101578.34;4989153;28;20041;-69
2021/01/11 09:18:17;;;;;;;43.53;19.80;;;;;;;1.77;100.00;101578.34;4987309;28;20514;-70
2021/01/11 09:20:45;;;;;;;47.53;21.17;;;;;;;1.81;100.00;101580.03;4991704;28;20081;-69
2021/01/11 09:23:11;;;;;;;44.97;19.83;;;;;;;1.81;100.00;101580.03;4990194;28;20638;-69
2021/01/11 09:25:38;;;;;;;47.28;21.52;;;;;;;1.70;100.00;101592.56;4990656;28;20033;-69
2021/01/11 09:28:05;;;;;;;46.17;19.77;;;;;;;1.85;100.00;101581.78;4988842;28;20063;-70
2021/01/11 09:30:31;;;;;;;46.20;20.35;;;;;;;1.86;100.00;101567.63;4990541;28;20045;-70
2021/01/11 09:32:57;;;;;;;48.35;20.25;;;;;;;1.86;100.00;101567.63;4987772;28;20118;-70
2021/01/11 09:35:23;;;;;;;46.75;21.65;;;;;;;1.93;100.00;101569.28;4982219;28;20030;-70
2021/01/11 09:37:49;;;;;;;51.45;20.75;;;;;;;1.98;100.00;101567.41;4988327;28;20034;-69
2021/01/11 09:40:16;;;;;;;49.22;20.73;;;;;;;1.96;100.00;101558.66;4989673;28;20670;-70
2021/01/11 09:42:42;;;;;;;46.03;19.75;;;;;;;2.00;100.00;101560.34;4990247;28;20070;-70
2021/01/11 09:45:08;;;;;;;46.97;19.83;;;;;;;2.02;100.00;101553.25;4987710;28;20073;-69
2021/01/11 09:47:34;;;;;;;49.47;20.73;;;;;;;2.04;100.00;101556.72;4989396;28;20030;-71
2021/01/11 09:50:00;;;;;;;45.42;20.63;;;;;;;2.03;100.00;101565.59;4988648;28;20046;-70
2021/01/11 09:52:27;;;;;;;47.53;20.10;;;;;;;1.96;100.00;101580.72;4988197;28;20089;-70
2021/01/11 09:54:52;;;;;;;48.97;20.77;;;;;;;2.07;100.00;101577.00;4988779;28;20443;-70
2021/01/11 09:57:18;;;;;;;42.30;18.85;;;;;;;2.13;100.00;101572.50;4983631;28;20122;-71
2021/01/11 09:59:43;;;;;;;47.65;19.77;;;;;;;2.19;100.00;101582.09;4989288;28;20109;-70
2021/01/11 10:02:09;;;;;;;44.92;19.55;;;;;;;2.09;100.00;101580.50;4989413;28;20045;-70
2021/01/11 10:04:34;;;;;;;45.90;19.52;;;;;;;2.13;100.00;101580.44;4989616;28;20149;-70
2021/01/11 10:07:00;;;;;;;44.80;19.65;;;;;;;2.13;100.00;101582.22;4988931;28;20041;-71
2021/01/11 10:09:29;;;;;;;40.83;18.13;;;;;;;2.12;100.00;101572.50;4988561;28;20050;-70
2021/01/11 10:11:59;;;;;;;46.80;18.33;;;;;;;2.18;100.00;101568.00;4988548;28;20281;-71
2021/01/11 10:14:26;;;;;;;41.28;18.75;;;;;;;2.23;100.00;101562.59;4987922;28;20042;-70
2021/01/11 10:16:51;;;;;;;40.60;18.95;;;;;;;2.14;100.00;101555.72;4985297;28;20053;-70
2021/01/11 10:19:21;;;;;;;46.53;19.45;;;;;;;2.09;100.00;101552.25;4989383;28;20425;-70
2021/01/11 10:21:48;;;;;;;50.25;18.90;;;;;;;2.16;100.00;101548.59;4989238;28;20481;-69
2021/01/11 10:24:15;;;;;;;46.35;19.33;;;;;;;2.14;100.00;101550.41;4988705;28;20570;-70
2021/01/11 10:26:45;;;;;;;40.25;18.10;;;;;;;2.25;100.00;101544.94;4987418;28;20037;-71
2021/01/11 10:29:18;;;;;;;42.33;18.65;;;;;;;2.24;100.00;101546.69;4988419;28;20042;-71
2021/01/11 10:31:44;;;;;;;43.65;18.23;;;;;;;2.19;100.00;101545.91;4989314;28;20030;-70
2021/01/11 10:34:11;;;;;;;34.65;17.02;;;;;;;2.34;100.00;101545.66;4989492;28;20045;-71
2021/01/11 10:36:45;;;;;;;43.55;20.10;;;;;;;2.39;100.00;101538.50;4986247;28;20034;-70
2021/01/11 10:39:11;;;;;;;38.58;18.55;;;;;;;2.28;100.00;101537.81;4991113;28;20703;-70
2021/01/11 10:41:36;;;;;;;37.95;18.45;;;;;;;2.31;100.00;101529.81;4987702;28;20081;-70
2021/01/11 10:44:03;;;;;;;43.10;18.33;;;;;;;2.25;100.00;101534.31;4987529;28;20042;-70
2021/01/11 10:46:28;;;;;;;37.00;17.30;;;;;;;2.42;100.00;101532.25;4988201;28;20037;-69
2021/01/11 10:48:54;;;;;;;45.65;19.40;;;;;;;2.44;100.00;101526.03;4989179;28;20026;-70
2021/01/11 10:51:22;;;;;;;46.80;18.77;;;;;;;2.43;100.00;101518.97;4987009;28;20031;-70
2021/01/11 10:53:49;;;;;;;73.55;22.58;;;;;;;2.43;100.00;101516.34;4987929;28;20038;-70
2021/01/11 10:56:15;;;;;;;42.05;18.23;;;;;;;2.47;100.00;101508.34;4986302;28;20056;-70
2021/01/11 10:58:41;;;;;;;77.63;22.75;;;;;;;2.43;100.00;101512.81;4988916;28;20037;-71
2021/01/11 11:01:08;;;;;;;38.80;17.75;;;;;;;2.47;100.00;101505.69;4986712;28;20031;-69
2021/01/11 11:03:34;;;;;;;43.60;18.08;;;;;;;2.54;100.00;101504.66;4988704;28;20030;-70
2021/01/11 11:05:59;;;;;;;123.53;41.55;;;;;;;2.46;100.00;101496.88;4989625;28;20045;-70
2021/01/11 11:08:25;;;;;;;46.13;20.13;;;;;;;2.53;100.00;101501.13;4989032;28;20089;-71
2021/01/11 11:10:50;;;;;;;40.13;17.50;;;;;;;2.63;100.00;101497.41;4988640;28;20050;-71
2021/01/11 11:13:16;;;;;;;37.35;17.00;;;;;;;2.77;100.00;101491.84;4985776;28;20038;-70
2021/01/11 11:15:45;;;;;;;35.00;16.83;;;;;;;2.63;100.00;101488.59;4988141;28;20533;-70